Time;durP1;ratioP1;P1;durP2;ratioP2;P2;SDS_P1;SDS_P2;PMS_P1;PMS_P2;Temp;Humidity;BMP_temperature;BMP_pressure;BME280_temperature;BME280_humidity;BME280_pressure;Samples;Min_cycle;Max_cycle;Signal;HPM_P1;HPM_P2
2020/12/03 00:00:50;;;;;;;73.33;21.90;;;-0.20;99.90;;;0.67;82.64;100989.19;5073991;28;20227;-74
2020/12/03 00:03:23;;;;;;;60.63;18.40;;;-0.20;99.90;;;0.69;82.67;100997.75;5070523;28;20202;-73
2020/12/03 00:05:59;;;;;;;54.50;17.77;;;-0.20;99.90;;;0.66;82.54;100992.59;5081862;28;20184;-73
2020/12/03 00:08:27;;;;;;;62.03;19.23;;;-0.20;99.90;;;0.60;82.66;100992.56;5100292;28;20685;-73
2020/12/03 00:10:53;;;;;;;61.17;19.47;;;-0.20;99.90;;;0.58;82.48;100989.09;5098823;28;20212;-74
2020/12/03 00:13:26;;;;;;;46.87;16.33;;;-0.20;99.90;;;0.60;82.92;100987.41;5074504;28;20180;-73
2020/12/03 00:15:56;;;;;;;60.70;18.47;;;-0.20;99.90;;;0.58;82.42;100987.41;5072439;28;20200;-74
2020/12/03 00:18:25;;;;;;;49.63;15.83;;;-0.30;99.90;;;0.53;82.44;100980.50;5073584;28;20285;-74
2020/12/03 00:20:53;;;;;;;59.30;18.50;;;-0.30;99.90;;;0.49;82.67;100978.72;5073506;28;20215;-73
2020/12/03 00:23:21;;;;;;;62.67;19.00;;;-0.30;99.90;;;0.46;82.83;100976.16;5089557;28;20540;-74
2020/12/03 00:25:50;;;;;;;52.27;18.60;;;-0.40;99.90;;;0.44;82.67;100970.13;5073599;28;20223;-74
2020/12/03 00:28:17;;;;;;;59.77;19.70;;;-0.40;99.90;;;0.41;82.85;100973.53;5073239;28;20192;-73
2020/12/03 00:30:45;;;;;;;54.20;18.57;;;-0.40;99.90;;;0.36;82.65;100972.66;5072774;28;20219;-73
2020/12/03 00:33:12;;;;;;;51.00;15.37;;;-0.40;99.90;;;0.34;82.95;100974.34;5073070;28;20212;-74
2020/12/03 00:35:39;;;;;;;52.20;18.03;;;-0.50;99.90;;;0.31;83.05;100971.75;5073081;28;20181;-74
2020/12/03 00:38:05;;;;;;;59.50;17.80;;;-0.50;99.90;;;0.35;83.28;100977.78;5088156;28;20587;-73
2020/12/03 00:40:31;;;;;;;64.77;20.40;;;-0.50;99.90;;;0.43;83.27;100979.56;5072917;28;20205;-74
2020/12/03 00:42:58;;;;;;;50.63;15.87;;;-0.40;99.90;;;0.49;82.78;100986.44;5073188;28;20188;-73
2020/12/03 00:45:24;;;;;;;53.67;17.13;;;-0.40;99.90;;;0.44;82.69;100981.28;5072860;28;20184;-74
2020/12/03 00:47:50;;;;;;;60.07;19.50;;;-0.50;99.90;;;0.46;82.72;100968.41;5071572;28;20204;-73
2020/12/03 00:50:17;;;;;;;63.30;18.93;;;-0.40;99.90;;;0.50;82.71;100971.06;5072385;28;20204;-74
2020/12/03 00:52:45;;;;;;;59.97;19.40;;;-0.40;99.90;;;0.57;82.45;100974.53;5088386;28;20570;-73
2020/12/03 00:55:12;;;;;;;42.73;15.90;;;-0.30;99.90;;;0.56;82.26;100980.50;5088369;28;20188;-73
2020/12/03 00:57:40;;;;;;;50.83;17.80;;;-0.40;99.90;;;0.47;82.12;100968.44;5088537;28;20216;-74
2020/12/03 01:00:12;;;;;;;56.13;18.00;;;-0.40;99.90;;;0.39;82.08;100966.66;5071670;28;20299;-73
2020/12/03 01:02:39;;;;;;;58.17;19.70;;;-0.50;99.90;;;0.39;82.46;100956.34;5071971;28;20650;-74
2020/12/03 01:05:06;;;;;;;57.83;21.13;;;-0.50;99.90;;;0.42;82.58;100949.53;5073217;28;20184;-73
2020/12/03 01:07:33;;;;;;;58.63;19.33;;;-0.40;99.90;;;0.47;82.58;100954.72;5072996;28;20184;-74
2020/12/03 01:10:00;;;;;;;66.57;20.10;;;-0.40;99.90;;;0.51;82.24;100953.88;5073706;28;20212;-74
2020/12/03 01:12:27;;;;;;;54.83;18.40;;;-0.40;99.90;;;0.55;82.44;100947.91;5072888;28;20234;-74
2020/12/03 01:14:53;;;;;;;55.77;17.63;;;-0.30;99.90;;;0.55;82.03;100941.06;5072001;28;20675;-75
2020/12/03 01:17:19;;;;;;;56.57;20.23;;;-0.30;99.90;;;0.56;82.17;100939.31;5088214;28;20220;-73
2020/12/03 01:19:46;;;;;;;57.67;17.63;;;-0.30;99.90;;;0.61;82.12;100927.34;5072559;28;20208;-73
2020/12/03 01:22:12;;;;;;;48.90;15.90;;;-0.30;99.90;;;0.58;81.72;100932.47;5088124;28;20218;-74
2020/12/03 01:24:41;;;;;;;48.33;16.27;;;-0.30;99.90;;;0.49;81.89;100928.13;5088188;28;20200;-73
2020/12/03 01:27:10;;;;;;;61.23;20.40;;;-0.40;99.90;;;0.47;81.95;100918.69;5072319;28;20199;-73
2020/12/03 01:29:37;;;;;;;47.40;17.13;;;-0.40;99.90;;;0.46;81.87;100924.69;5070180;28;20723;-73
2020/12/03 01:32:03;;;;;;;56.07;18.23;;;-0.40;99.90;;;0.44;81.89;100918.66;5087715;28;20200;-73
2020/12/03 01:34:30;;;;;;;58.60;17.33;;;-0.40;99.90;;;0.47;82.07;100905.84;5071826;28;20536;-73
2020/12/03 01:36:56;;;;;;;62.80;20.70;;;-0.40;99.90;;;0.46;81.66;100909.25;5070742;28;20273;-73
2020/12/03 01:39:22;;;;;;;54.50;17.83;;;-0.50;99.90;;;0.45;81.82;100900.69;5070182;28;20207;-73
2020/12/03 01:41:50;;;;;;;52.43;16.77;;;-0.50;99.90;;;0.41;81.59;100900.63;5071599;28;20185;-74
2020/12/03 01:44:38;;;;;;;59.70;19.50;;;-0.50;99.90;;;0.40;81.87;100896.34;5071558;28;20675;-73
2020/12/03 01:47:05;;;;;;;53.27;15.37;;;-0.50;99.90;;;0.41;81.83;100890.34;5070621;28;20226;-73
2020/12/03 01:49:34;;;;;;;63.07;18.43;;;-0.50;99.90;;;0.41;81.52;100896.34;5070955;28;20245;-73
2020/12/03 01:52:01;;;;;;;50.10;16.60;;;-0.50;99.90;;;0.36;81.41;100880.03;5071553;28;20223;-74
2020/12/03 01:54:27;;;;;;;70.87;19.47;;;-0.50;99.90;;;0.33;81.48;100876.59;5071675;28;20184;-74
2020/12/03 01:57:21;;;;;;;61.97;19.73;;;-0.60;99.90;;;0.32;81.80;100882.59;5087203;28;20723;-73
2020/12/03 02:00:07;;;;;;;63.90;20.10;;;-0.60;99.90;;;0.30;82.18;100876.56;5066912;28;20227;-74
2020/12/03 02:02:42;;;;;;;65.27;20.57;;;-0.60;99.90;;;0.31;82.26;100865.41;5071562;28;20203;-74
2020/12/03 02:05:13;;;;;;;58.00;19.53;;;-0.60;99.90;;;0.34;82.17;100855.13;5070315;28;20187;-73
2020/12/03 02:07:40;;;;;;;63.70;20.20;;;-0.50;99.90;;;0.37;81.82;100858.59;5069788;28;20291;-74
2020/12/03 02:10:07;;;;;;;61.03;19.27;;;-0.50;99.90;;;0.39;82.01;100853.44;5071065;28;20306;-73
2020/12/03 02:12:34;;;;;;;63.70;18.97;;;-0.50;99.90;;;0.37;82.06;100840.56;5071538;28;20672;-73
2020/12/03 02:15:02;;;;;;;67.97;20.90;;;-0.50;99.90;;;0.41;81.86;100851.75;5070606;28;20187;-73
2020/12/03 02:17:28;;;;;;;56.63;18.97;;;-0.40;99.90;;;0.39;81.47;100830.28;5086642;28;20215;-74
2020/12/03 02:19:59;;;;;;;60.03;18.53;;;-0.50;99.90;;;0.39;81.63;100832.88;5069620;28;20563;-74
2020/12/03 02:22:26;;;;;;;65.03;21.13;;;-0.50;99.90;;;0.34;81.89;100820.00;5071039;28;20188;-73
2020/12/03 02:24:53;;;;;;;55.60;18.27;;;-0.50;99.90;;;0.37;81.73;100820.00;5086742;28;20196;-73
2020/12/03 02:27:23;;;;;;;59.30;17.93;;;-0.50;99.90;;;0.41;81.78;100805.44;5072021;28;20191;-73
2020/12/03 02:29:50;;;;;;;59.77;20.13;;;-0.50;99.90;;;0.38;81.55;100802.84;5071524;28;20700;-73
2020/12/03 02:32:17;;;;;;;54.93;18.27;;;-0.50;99.90;;;0.37;81.49;100798.56;5072468;28;20203;-73
2020/12/03 02:34:44;;;;;;;52.90;18.00;;;-0.50;99.90;;;0.33;81.16;100797.69;5069045;28;20188;-72
2020/12/03 02:37:12;;;;;;;63.40;17.60;;;-0.50;99.90;;;0.29;81.56;100792.50;5071199;28;20199;-73
2020/12/03 02:39:40;;;;;;;52.97;17.20;;;-0.60;99.90;;;0.25;81.38;100788.22;5070895;28;20210;-74
2020/12/03 02:42:11;;;;;;;49.33;16.00;;;-0.60;99.90;;;0.24;81.71;100782.22;5086567;28;20227;-74
2020/12/03 02:44:41;;;;;;;69.47;21.33;;;-0.70;99.90;;;0.22;81.58;100785.66;5086582;28;20225;-73
2020/12/03 02:47:08;;;;;;;59.17;19.60;;;-0.60;99.90;;;0.18;81.51;100777.06;5071976;28;20207;-73
2020/12/03 02:49:40;;;;;;;50.40;16.30;;;-0.70;99.90;;;0.21;81.63;100771.91;5071765;28;20203;-74
2020/12/03 02:52:08;;;;;;;58.60;18.63;;;-0.60;99.90;;;0.24;81.70;100773.63;5072336;28;20196;-73
2020/12/03 02:54:35;;;;;;;63.43;21.73;;;-0.60;99.90;;;0.24;81.27;100759.06;5069804;28;20188;-73
2020/12/03 02:57:02;;;;;;;65.77;18.67;;;-0.60;99.90;;;0.23;81.37;100753.91;5071287;28;20203;-72
2020/12/03 02:59:28;;;;;;;62.47;19.00;;;-0.60;99.90;;;0.23;81.56;100765.06;5070555;28;20204;-74
2020/12/03 03:01:54;;;;;;;62.67;20.37;;;-0.60;99.90;;;0.24;81.37;100755.63;5072371;28;20200;-73
2020/12/03 03:04:20;;;;;;;65.63;20.10;;;-0.60;99.90;;;0.20;81.17;100748.75;5082663;28;20184;-73
2020/12/03 03:06:47;;;;;;;70.10;22.30;;;-0.60;99.90;;;0.17;81.40;100744.44;5084571;28;20234;-72
2020/12/03 03:09:13;;;;;;;42.37;14.97;;;-0.70;99.90;;;0.16;81.50;100745.31;5072923;28;20222;-73
2020/12/03 03:11:40;;;;;;;60.97;19.77;;;-0.70;99.90;;;0.13;81.71;100750.44;5070811;28;20185;-73
2020/12/03 03:14:06;;;;;;;67.43;21.00;;;-0.70;99.90;;;0.11;81.82;100748.72;5071021;28;20195;-74
2020/12/03 03:16:33;;;;;;;53.27;20.50;;;-0.70;99.90;;;0.10;81.75;100752.16;5069537;28;20235;-73
2020/12/03 03:18:59;;;;;;;72.53;21.10;;;-0.70;99.90;;;0.11;81.49;100749.56;5070409;28;20218;-73
2020/12/03 03:21:26;;;;;;;60.90;19.10;;;-0.70;99.90;;;0.16;81.52;100736.72;5072815;28;20215;-74
2020/12/03 03:23:53;;;;;;;77.20;21.53;;;-0.70;99.90;;;0.18;81.27;100737.59;5077076;28;20210;-73
2020/12/03 03:26:20;;;;;;;69.00;20.30;;;-0.70;99.90;;;0.16;81.53;100737.59;5075551;28;20192;-74
2020/12/03 03:28:47;;;;;;;67.90;21.30;;;-0.70;99.90;;;0.13;81.34;100734.16;5073083;28;20215;-74
2020/12/03 03:31:13;;;;;;;52.80;19.27;;;-0.70;99.90;;;0.15;81.33;100750.44;5074107;28;20219;-74
2020/12/03 03:33:40;;;;;;;65.30;21.17;;;-0.70;99.90;;;0.11;81.54;100748.72;5089961;28;20200;-73
2020/12/03 03:36:06;;;;;;;59.27;20.80;;;-0.80;99.90;;;0.08;81.52;100743.56;5074351;28;20188;-74
2020/12/03 03:38:32;;;;;;;64.40;21.47;;;-0.80;99.90;;;0.00;81.92;100752.09;5072244;28;20208;-73
2020/12/03 03:40:59;;;;;;;69.57;20.60;;;-0.80;99.90;;;0.03;82.05;100740.09;5072704;28;20215;-73
2020/12/03 03:43:25;;;;;;;64.57;21.43;;;-0.80;99.90;;;0.03;81.80;100738.41;5073943;28;20181;-73
2020/12/03 03:45:52;;;;;;;72.83;21.40;;;-0.80;99.90;;;0.07;81.99;100729.00;5072774;28;20604;-74
2020/12/03 03:48:19;;;;;;;66.00;17.63;;;-0.80;99.90;;;0.12;81.91;100729.88;5072580;28;20306;-73
2020/12/03 03:50:46;;;;;;;86.30;23.10;;;-0.70;99.90;;;0.18;81.68;100722.16;5090092;28;20212;-73
2020/12/03 03:53:12;;;;;;;67.80;21.03;;;-0.60;99.90;;;0.22;81.58;100721.34;5091793;28;20199;-73
2020/12/03 03:55:39;;;;;;;67.73;20.03;;;-0.60;99.90;;;0.20;81.31;100712.75;5091027;28;20189;-73
2020/12/03 03:58:08;;;;;;;50.33;18.80;;;-0.60;99.90;;;0.19;81.23;100716.16;5073254;28;20216;-73
2020/12/03 04:00:40;;;;;;;70.53;22.30;;;-0.60;99.90;;;0.17;81.70;100702.47;5071913;28;20208;-74
2020/12/03 04:03:12;;;;;;;67.93;22.57;;;-0.60;99.90;;;0.14;81.36;100697.28;5088948;28;20196;-74
2020/12/03 04:05:38;;;;;;;72.13;23.87;;;-0.70;99.90;;;0.15;81.52;100676.75;5089115;28;20283;-73
2020/12/03 04:08:04;;;;;;;70.70;23.00;;;-0.60;99.90;;;0.23;81.78;100676.75;5073397;28;20553;-74
2020/12/03 04:10:31;;;;;;;57.13;21.43;;;-0.60;99.90;;;0.26;81.29;100671.63;5088949;28;20215;-73
2020/12/03 04:12:57;;;;;;;64.37;22.73;;;-0.50;99.90;;;0.25;81.40;100677.63;5071870;28;20191;-72
2020/12/03 04:15:23;;;;;;;71.23;23.73;;;-0.50;99.90;;;0.27;81.11;100675.94;5073080;28;20384;-73
2020/12/03 04:17:49;;;;;;;71.00;23.83;;;-0.50;99.90;;;0.29;81.33;100677.63;5072229;28;20196;-73
2020/12/03 04:20:17;;;;;;;68.63;21.50;;;-0.50;99.90;;;0.30;81.03;100678.50;5072876;28;20219;-73
2020/12/03 04:22:44;;;;;;;80.33;23.63;;;-0.50;99.90;;;0.33;81.05;100673.34;5073214;28;20192;-73
2020/12/03 04:25:11;;;;;;;74.50;25.17;;;-0.50;99.90;;;0.35;80.79;100671.66;5088693;28;20192;-73
2020/12/03 04:27:37;;;;;;;62.93;20.80;;;-0.50;99.90;;;0.33;80.56;100666.50;5073538;28;20193;-73
2020/12/03 04:30:06;;;;;;;78.37;24.17;;;-0.50;99.90;;;0.33;80.92;100670.78;5088036;28;20587;-74
2020/12/03 04:32:32;;;;;;;64.90;21.43;;;-0.50;99.90;;;0.33;80.72;100669.06;5087310;28;20222;-73
2020/12/03 04:34:59;;;;;;;71.27;22.63;;;-0.50;99.90;;;0.34;80.62;100662.19;5072786;28;20211;-73
2020/12/03 04:37:26;;;;;;;73.27;24.23;;;-0.50;99.90;;;0.36;80.74;100663.06;5072660;28;20211;-73
2020/12/03 04:39:53;;;;;;;62.97;23.97;;;-0.40;99.90;;;0.36;80.83;100660.50;5072624;28;20204;-74
2020/12/03 04:42:24;;;;;;;73.60;23.63;;;-0.50;99.90;;;0.34;80.98;100659.63;5072881;28;20176;-73
2020/12/03 04:44:56;;;;;;;88.63;24.83;;;-0.50;99.90;;;0.32;80.72;100663.94;5072583;28;20330;-74
2020/12/03 04:47:56;;;;;;;69.33;21.40;;;-0.50;99.90;;;0.34;81.03;100668.22;5087877;28;20196;-74
2020/12/03 04:50:40;;;;;;;70.53;24.27;;;-0.40;99.90;;;0.36;80.78;100663.06;5081396;28;20231;-73
2020/12/03 04:53:26;;;;;;;75.00;22.17;;;-0.40;99.90;;;0.35;80.99;100666.50;5070959;28;20185;-73
2020/12/03 04:55:59;;;;;;;78.87;23.97;;;-0.40;99.90;;;0.36;81.12;100660.50;5070941;28;20192;-73
2020/12/03 04:58:48;;;;;;;71.90;23.83;;;-0.40;99.90;;;0.41;81.05;100662.22;5071872;28;20660;-73
2020/12/03 05:01:57;;;;;;;90.27;24.23;;;-0.30;99.90;;;0.43;80.77;100649.38;5071946;28;20211;-72
2020/12/03 05:04:34;;;;;;;67.27;23.27;;;-0.30;99.90;;;0.40;80.60;100649.38;5064618;28;20196;-73
2020/12/03 05:07:06;;;;;;;64.10;20.70;;;-0.40;99.90;;;0.36;81.01;100645.06;5087664;28;20188;-73
2020/12/03 05:09:45;;;;;;;61.10;20.77;;;-0.40;99.90;;;0.32;80.92;100640.78;5071830;28;20208;-73
2020/12/03 05:12:18;;;;;;;77.17;23.97;;;-0.40;99.90;;;0.33;81.08;100632.19;5072011;28;20223;-73
2020/12/03 05:14:50;;;;;;;70.40;24.30;;;-0.40;99.90;;;0.40;81.08;100628.78;5071921;28;20189;-73
2020/12/03 05:17:38;;;;;;;66.03;21.80;;;-0.30;99.90;;;0.43;81.16;100632.22;5070051;28;20212;-74
2020/12/03 05:20:35;;;;;;;79.70;25.90;;;-0.30;99.90;;;0.50;80.64;100636.53;5103521;28;20217;-74
2020/12/03 05:23:12;;;;;;;79.03;25.33;;;-0.30;99.90;;;0.51;80.66;100637.38;5070505;28;20648;-73
2020/12/03 05:25:40;;;;;;;64.80;20.33;;;-0.30;99.90;;;0.51;80.73;100633.09;5071876;28;20196;-73
2020/12/03 05:28:54;;;;;;;73.73;23.60;;;-0.30;99.90;;;0.51;80.67;100640.81;5070316;28;20196;-72
2020/12/03 05:31:32;;;;;;;70.57;22.77;;;-0.20;99.90;;;0.56;80.31;100630.50;5069349;28;20300;-74
2020/12/03 05:34:10;;;;;;;74.27;22.57;;;-0.20;99.90;;;0.59;80.42;100630.50;5070764;28;20191;-73
2020/12/03 05:36:41;;;;;;;66.03;20.57;;;-0.20;99.90;;;0.56;80.27;100628.81;5071022;28;20196;-74
2020/12/03 05:39:13;;;;;;;75.00;24.60;;;-0.20;99.90;;;0.58;80.55;100623.66;5086929;28;20220;-74
2020/12/03 05:41:48;;;;;;;88.33;25.10;;;-0.20;99.90;;;0.60;80.18;100629.69;5087185;28;20200;-73
2020/12/03 05:44:34;;;;;;;78.73;22.33;;;-0.10;99.90;;;0.61;80.35;100623.66;5071375;28;20194;-74
2020/12/03 05:47:02;;;;;;;74.03;24.53;;;-0.10;99.90;;;0.61;80.24;100608.22;5086881;28;20201;-73
2020/12/03 05:49:30;;;;;;;74.17;24.00;;;-0.10;99.90;;;0.57;79.77;100616.81;5071136;28;20211;-72
2020/12/03 05:52:17;;;;;;;73.17;22.43;;;-0.20;99.90;;;0.53;80.03;100615.06;5071647;28;20274;-73
2020/12/03 05:55:03;;;;;;;76.70;22.17;;;-0.20;99.90;;;0.50;80.18;100600.50;5070589;28;20195;-71
2020/12/03 05:57:35;;;;;;;76.77;23.20;;;-0.20;99.90;;;0.53;80.20;100599.63;5087786;28;20238;-73
2020/12/03 06:00:24;;;;;;;90.47;24.67;;;-0.20;99.90;;;0.48;80.16;100599.66;5072472;28;20204;-73
2020/12/03 06:03:13;;;;;;;71.03;22.40;;;-0.30;99.90;;;0.51;80.48;100602.22;5100991;28;20569;-73
2020/12/03 06:05:52;;;;;;;55.00;17.90;;;-0.20;99.90;;;0.55;80.25;100592.78;5114313;28;20196;-73
2020/12/03 06:08:57;;;;;;;68.90;22.33;;;-0.20;99.90;;;0.53;80.24;100595.34;5049911;28;20192;-74
2020/12/03 06:11:48;;;;;;;66.03;22.47;;;-0.20;99.90;;;0.55;80.26;100591.06;5051061;28;20738;-73
2020/12/03 06:14:57;;;;;;;61.40;19.63;;;-0.20;99.90;;;0.52;80.25;100587.63;5051194;28;20669;-73
2020/12/03 06:17:40;;;;;;;68.37;22.07;;;-0.20;99.90;;;0.50;80.19;100581.63;5050901;28;20204;-73
2020/12/03 06:20:38;;;;;;;66.67;20.93;;;-0.20;99.90;;;0.49;80.11;100590.19;5066274;28;20231;-73
2020/12/03 06:23:28;;;;;;;71.03;20.73;;;-0.20;99.90;;;0.46;79.93;100587.63;5068162;28;20211;-73
2020/12/03 06:26:07;;;;;;;65.50;19.07;;;-0.30;99.90;;;0.48;80.04;100591.06;5049759;28;20192;-74
2020/12/03 06:29:11;;;;;;;78.40;23.00;;;-0.20;99.90;;;0.50;80.14;100589.34;5049407;28;20211;-73
2020/12/03 06:32:04;;;;;;;64.00;20.40;;;-0.20;99.90;;;0.54;80.25;100591.03;5051169;28;20191;-73
2020/12/03 06:34:39;;;;;;;75.73;22.60;;;-0.20;99.90;;;0.58;79.95;100592.78;5065304;28;20566;-74
2020/12/03 06:37:23;;;;;;;71.93;21.90;;;-0.10;99.90;;;0.62;79.93;100579.06;5086080;28;20199;-74
2020/12/03 06:40:00;;;;;;;67.40;23.40;;;-0.10;99.90;;;0.64;79.76;100585.03;5086360;28;20225;-74
2020/12/03 06:42:38;;;;;;;72.93;20.20;;;-0.10;99.90;;;0.61;79.74;100582.47;5069941;28;20196;-74
2020/12/03 06:45:36;;;;;;;59.73;20.37;;;-0.10;99.90;;;0.61;79.87;100583.34;5069556;28;20195;-73
2020/12/03 06:48:22;;;;;;;57.00;16.83;;;-0.10;99.90;;;0.62;79.42;100585.06;5069860;28;20204;-73
2020/12/03 06:51:18;;;;;;;73.23;22.07;;;-0.10;99.90;;;0.57;79.35;100585.94;5069230;28;20220;-73
2020/12/03 06:54:27;;;;;;;67.53;20.53;;;-0.10;99.90;;;0.56;79.57;100576.47;5070800;28;20192;-74
2020/12/03 06:58:01;;;;;;;66.20;20.53;;;-0.20;99.90;;;0.58;79.40;100582.47;5074638;28;20191;-72
2020/12/03 07:01:08;;;;;;;55.03;19.13;;;-0.10;99.90;;;0.57;79.55;100579.03;5052905;28;20704;-74
2020/12/03 07:04:20;;;;;;;65.57;20.87;;;-0.20;99.90;;;0.58;79.72;100577.34;5083832;28;20192;-74
2020/12/03 07:07:22;;;;;;;56.27;18.80;;;-0.10;99.90;;;0.61;79.59;100569.63;5074255;28;20199;-74
2020/12/03 07:10:56;;;;;;;58.00;18.07;;;-0.10;99.90;;;0.70;79.71;100572.19;5089537;28;20261;-73
2020/12/03 07:14:51;;;;;;;71.47;22.00;;;0.00;99.90;;;0.75;79.16;100570.47;5074102;28;20695;-73
2020/12/03 07:18:24;;;;;;;63.80;20.97;;;0.00;99.90;;;0.74;79.16;100559.31;5074074;28;20207;-74
2020/12/03 07:21:44;;;;;;;64.77;20.43;;;0.00;99.90;;;0.72;79.09;100549.91;5072019;28;20594;-74
2020/12/03 07:24:16;;;;;;;60.47;20.40;;;0.00;99.90;;;0.72;79.44;100543.00;5053906;28;20189;-74
2020/12/03 07:27:07;;;;;;;66.60;20.37;;;0.00;99.90;;;0.76;79.41;100549.00;5052666;28;20196;-73
2020/12/03 07:29:51;;;;;;;73.67;21.03;;;0.00;99.90;;;0.78;79.11;100544.72;5069150;28;20625;-73
2020/12/03 07:32:33;;;;;;;64.13;20.03;;;0.10;99.90;;;0.80;78.98;100548.16;5069306;28;20223;-74
2020/12/03 07:35:10;;;;;;;60.73;19.80;;;0.10;99.90;;;0.78;79.10;100544.72;5053816;28;20200;-72
2020/12/03 07:37:50;;;;;;;69.33;20.23;;;0.10;99.90;;;0.76;78.96;100538.72;5052070;28;20235;-74
2020/12/03 07:40:19;;;;;;;67.77;19.57;;;0.00;99.90;;;0.74;79.13;100535.28;5053517;28;20209;-73
2020/12/03 07:42:46;;;;;;;72.50;20.10;;;0.00;99.90;;;0.72;79.23;100539.59;5054002;28;20203;-74
2020/12/03 07:45:37;;;;;;;66.67;20.27;;;0.00;99.90;;;0.76;79.18;100541.28;5069327;28;20283;-75
2020/12/03 07:48:17;;;;;;;58.40;20.00;;;0.10;99.90;;;0.75;79.23;100539.59;5055979;28;20614;-73
2020/12/03 07:51:06;;;;;;;58.50;20.60;;;0.00;99.90;;;0.75;79.21;100529.28;5073626;28;20207;-74
2020/12/03 07:53:35;;;;;;;60.27;19.07;;;0.00;99.90;;;0.71;79.40;100525.88;5089135;28;20196;-74
2020/12/03 07:56:37;;;;;;;67.40;22.17;;;0.00;99.90;;;0.66;79.39;100524.13;5073564;28;20215;-74
2020/12/03 07:59:37;;;;;;;67.83;21.70;;;0.00;99.90;;;0.65;79.64;100522.44;5072072;28;20591;-74
2020/12/03 08:02:38;;;;;;;64.50;21.00;;;0.00;99.90;;;0.71;79.47;100515.56;5073480;28;20185;-74
2020/12/03 08:05:46;;;;;;;67.90;20.30;;;0.00;99.90;;;0.81;79.59;100506.97;5079712;28;20200;-74
2020/12/03 08:08:36;;;;;;;67.03;20.67;;;0.10;99.90;;;0.88;79.11;100507.81;5052751;28;20189;-73
2020/12/03 08:11:05;;;;;;;69.33;20.07;;;0.10;99.90;;;0.91;79.29;100511.22;5053270;28;20201;-74
2020/12/03 08:13:37;;;;;;;70.20;21.57;;;0.20;99.90;;;0.94;78.91;100500.91;5053187;28;20185;-73
2020/12/03 08:16:07;;;;;;;68.20;18.87;;;0.20;99.90;;;0.97;78.73;100494.94;5053254;28;20189;-73
2020/12/03 08:18:43;;;;;;;74.70;22.23;;;0.20;99.90;;;0.96;78.53;100477.75;5068199;28;20591;-73
2020/12/03 08:21:13;;;;;;;60.40;19.40;;;0.30;99.90;;;0.99;78.68;100470.00;5060166;28;20208;-73
2020/12/03 08:23:51;;;;;;;61.43;18.77;;;0.30;99.90;;;0.98;78.46;100476.03;5073139;28;20192;-73
2020/12/03 08:26:26;;;;;;;65.27;18.97;;;0.30;99.90;;;0.99;78.55;100485.44;5071735;28;20227;-73
2020/12/03 08:28:52;;;;;;;75.93;20.83;;;0.30;99.90;;;1.02;78.06;100480.31;5088332;28;20199;-73
2020/12/03 08:31:18;;;;;;;62.87;20.10;;;0.30;99.90;;;1.08;78.49;100480.28;5073093;28;20241;-74
2020/12/03 08:33:51;;;;;;;69.67;21.27;;;0.40;99.90;;;1.11;77.92;100488.00;5088901;28;20557;-74
2020/12/03 08:36:18;;;;;;;59.03;19.07;;;0.40;99.90;;;1.10;77.87;100476.84;5071616;28;20209;-74
2020/12/03 08:38:53;;;;;;;60.07;18.13;;;0.40;99.90;;;1.11;77.81;100477.69;5087746;28;20223;-73
2020/12/03 08:41:27;;;;;;;76.00;21.03;;;0.40;99.90;;;1.09;77.90;100474.25;5073144;28;20199;-74
2020/12/03 08:43:58;;;;;;;68.73;20.37;;;0.40;99.90;;;1.12;78.07;100482.00;5072861;28;20191;-74
2020/12/03 08:46:26;;;;;;;70.03;22.03;;;0.50;99.90;;;1.19;77.88;100491.38;5088385;28;20200;-73
2020/12/03 08:48:54;;;;;;;58.00;20.50;;;0.50;99.90;;;1.23;77.94;100485.38;5072506;28;20195;-72
2020/12/03 08:51:20;;;;;;;63.00;20.20;;;0.60;99.90;;;1.28;77.60;100481.06;5072519;28;20220;-74
2020/12/03 08:53:49;;;;;;;62.83;19.93;;;0.60;99.90;;;1.33;77.33;100484.47;5071565;28;20196;-73
2020/12/03 08:56:29;;;;;;;63.87;20.40;;;0.70;99.90;;;1.38;77.49;100472.44;5072453;28;20184;-74
2020/12/03 08:59:06;;;;;;;54.43;17.07;;;0.70;99.90;;;1.39;77.18;100479.28;5070990;28;20207;-71
2020/12/03 09:01:36;;;;;;;55.00;18.53;;;0.70;99.90;;;1.38;77.34;100472.44;5072598;28;20207;-73
2020/12/03 09:04:05;;;;;;;64.73;18.47;;;0.70;99.90;;;1.40;77.11;100467.28;5071782;28;20192;-73
2020/12/03 09:06:36;;;;;;;66.43;20.30;;;0.70;99.90;;;1.39;76.93;100457.84;5072447;28;20194;-74
2020/12/03 09:09:03;;;;;;;75.47;21.53;;;0.80;99.90;;;1.42;77.10;100452.66;5088936;28;20549;-74
2020/12/03 09:11:34;;;;;;;56.17;17.27;;;0.80;99.90;;;1.43;77.01;100462.97;5081037;28;20235;-73
2020/12/03 09:14:03;;;;;;;54.63;16.60;;;0.80;99.90;;;1.41;76.79;100454.38;5081882;28;20562;-73
2020/12/03 09:16:34;;;;;;;69.07;21.17;;;0.80;99.90;;;1.36;76.93;100450.13;5089044;28;20195;-73
2020/12/03 09:19:00;;;;;;;64.90;19.60;;;0.80;99.90;;;1.37;76.77;100449.25;5071328;28;20247;-73
2020/12/03 09:21:29;;;;;;;57.20;20.70;;;0.80;99.90;;;1.40;76.99;100433.78;5070497;28;20692;-73
2020/12/03 09:23:59;;;;;;;58.50;19.20;;;0.80;99.90;;;1.44;76.70;100431.16;5068721;28;20188;-74
2020/12/03 09:26:32;;;;;;;65.60;19.60;;;0.80;99.90;;;1.46;76.74;100434.59;5070604;28;20732;-73
2020/12/03 09:29:00;;;;;;;53.30;16.40;;;0.80;99.90;;;1.45;76.51;100421.72;5071801;28;20216;-72
2020/12/03 09:31:31;;;;;;;59.50;19.13;;;0.80;99.90;;;1.44;76.48;100409.72;5071511;28;20219;-73
2020/12/03 09:34:00;;;;;;;57.00;18.33;;;0.80;99.90;;;1.47;76.77;100420.84;5070820;28;20192;-74
2020/12/03 09:36:27;;;;;;;70.93;20.13;;;0.80;99.90;;;1.49;76.84;100413.94;5086915;28;20218;-73
2020/12/03 09:38:59;;;;;;;54.47;18.80;;;0.80;99.90;;;1.54;76.83;100406.22;5069961;28;20224;-74
2020/12/03 09:41:26;;;;;;;60.67;18.40;;;0.90;99.90;;;1.55;76.75;100408.78;5089958;28;20224;-73
2020/12/03 09:43:56;;;;;;;66.23;20.23;;;0.90;99.90;;;1.56;76.69;100389.03;5073162;28;20195;-73
2020/12/03 09:46:27;;;;;;;63.40;19.70;;;0.90;99.90;;;1.62;76.30;100392.41;5073009;28;20200;-73
2020/12/03 09:48:54;;;;;;;61.77;19.07;;;1.00;99.90;;;1.65;76.19;100384.66;5071140;28;20192;-74
2020/12/03 09:51:21;;;;;;;62.60;18.77;;;1.00;99.90;;;1.66;76.00;100385.50;5071231;28;20215;-73
2020/12/03 09:53:50;;;;;;;66.43;19.00;;;1.00;99.90;;;1.65;76.13;100374.34;5086806;28;20196;-73
2020/12/03 09:56:17;;;;;;;59.73;20.30;;;1.00;99.90;;;1.63;75.84;100375.19;5086709;28;20298;-73
2020/12/03 09:58:43;;;;;;;59.80;19.03;;;1.00;99.90;;;1.64;75.99;100367.44;5070676;28;20549;-74
2020/12/03 10:01:11;;;;;;;52.63;19.73;;;1.00;99.90;;;1.69;75.91;100370.84;5071151;28;20208;-74
2020/12/03 10:04:29;;;;;;;54.60;17.70;;;1.10;99.90;;;1.72;75.82;100368.28;5070207;28;20188;-73
2020/12/03 10:07:06;;;;;;;58.47;18.93;;;1.10;99.90;;;1.77;76.11;100369.09;5064575;28;20201;-74
2020/12/03 10:10:07;;;;;;;55.37;18.37;;;1.20;99.90;;;1.82;75.93;100358.72;5050954;28;20295;-74
2020/12/03 10:12:49;;;;;;;47.30;16.70;;;1.20;99.90;;;1.87;75.71;100360.41;5066465;28;20197;-73
2020/12/03 10:15:45;;;;;;;48.67;17.53;;;1.30;99.90;;;1.84;75.40;100344.09;5049744;28;20586;-74
2020/12/03 10:18:21;;;;;;;48.30;16.63;;;1.20;99.90;;;1.87;75.41;100347.50;5050437;28;20208;-74
2020/12/03 10:20:51;;;;;;;50.53;17.13;;;1.30;99.90;;;1.88;75.22;100338.91;5049512;28;20216;-73
2020/12/03 10:23:38;;;;;;;47.23;16.83;;;1.30;99.90;;;1.90;75.33;100326.84;5075482;28;20210;-73
2020/12/03 10:26:21;;;;;;;49.40;16.93;;;1.30;99.90;;;1.95;74.85;100316.47;5069704;28;20637;-73
2020/12/03 10:28:52;;;;;;;54.13;17.37;;;1.40;99.90;;;2.02;74.89;100316.41;5070766;28;20262;-75
2020/12/03 10:31:21;;;;;;;51.10;17.43;;;1.50;99.90;;;2.10;74.85;100306.00;5074712;28;20200;-73
2020/12/03 10:33:51;;;;;;;51.23;18.80;;;1.50;99.90;;;2.12;74.35;100301.69;5074849;28;20636;-73
2020/12/03 10:36:34;;;;;;;51.30;16.77;;;1.60;99.90;;;2.14;74.19;100298.22;5074778;28;20183;-74
2020/12/03 10:39:03;;;;;;;54.83;18.20;;;1.60;99.90;;;2.19;74.37;100288.69;5074717;28;20207;-74
2020/12/03 10:41:36;;;;;;;47.57;17.10;;;1.60;99.90;;;2.13;73.94;100291.34;5090533;28;20216;-73